Pitkin, Colorado
Current Conditions -  °F | °C
As of 1:14 AM on Monday 24 Nov 2014 (Local Time) from KMYP Reporting Station
Overcast Overcast  
Wind Chill: -31°   Ceiling: 200
Heat Index:   Visibility: NA
Dew Point: -4°   Wind: 46mph
Humidity: 85%   Direction: 260°W
Pressure: 29.92"   Gusts: 125mph
Location:  38.61°N, 106.52°W
Report Text: KMYP 240814Z AUTO 26040G109KT OVC002 M18/M20 A2992 RMK AO2 PWINO
Loading
Personal Weather Stations






























Interactive Weather Map New forecast layout! Learn more

10-Day Weather Forecast

Advertisements
Track Severe Weather on mobile